sensor_id;sensor_type;location;lat;lon;timestamp;P1;durP1;ratioP1;P2;durP2;ratioP2
55069;SDS011;40967;52.070;8.596;2023-09-30T00:01:26;1.92;;;0.65;;
55069;SDS011;40967;52.070;8.596;2023-09-30T00:03:51;2.50;;;0.80;;
55069;SDS011;40967;52.070;8.596;2023-09-30T00:06:17;2.47;;;0.90;;
55069;SDS011;40967;52.070;8.596;2023-09-30T00:08:42;1.83;;;0.70;;
55069;SDS011;40967;52.070;8.596;2023-09-30T00:11:08;1.98;;;0.70;;
55069;SDS011;40967;52.070;8.596;2023-09-30T00:13:37;1.85;;;0.90;;
55069;SDS011;40967;52.070;8.596;2023-09-30T00:16:03;1.75;;;0.73;;
55069;SDS011;40967;52.070;8.596;2023-09-30T00:18:29;2.13;;;0.80;;
55069;SDS011;40967;52.070;8.596;2023-09-30T00:20:54;2.17;;;0.80;;
55069;SDS011;40967;52.070;8.596;2023-09-30T00:23:20;2.20;;;0.80;;
55069;SDS011;40967;52.070;8.596;2023-09-30T00:25:46;2.23;;;0.80;;
55069;SDS011;40967;52.070;8.596;2023-09-30T00:28:13;2.10;;;0.80;;
55069;SDS011;40967;52.070;8.596;2023-09-30T00:30:39;2.58;;;0.95;;
55069;SDS011;40967;52.070;8.596;2023-09-30T00:33:05;2.00;;;0.80;;
55069;SDS011;40967;52.070;8.596;2023-09-30T00:35:31;2.47;;;0.90;;
55069;SDS011;40967;52.070;8.596;2023-09-30T00:38:00;2.35;;;0.90;;
55069;SDS011;40967;52.070;8.596;2023-09-30T00:40:25;2.27;;;0.87;;
55069;SDS011;40967;52.070;8.596;2023-09-30T00:42:51;2.67;;;0.90;;
55069;SDS011;40967;52.070;8.596;2023-09-30T00:45:16;2.07;;;0.97;;
55069;SDS011;40967;52.070;8.596;2023-09-30T00:47:42;3.60;;;1.40;;
55069;SDS011;40967;52.070;8.596;2023-09-30T00:50:07;2.63;;;1.02;;
55069;SDS011;40967;52.070;8.596;2023-09-30T00:52:35;2.72;;;1.00;;
55069;SDS011;40967;52.070;8.596;2023-09-30T00:55:02;3.15;;;1.00;;
55069;SDS011;40967;52.070;8.596;2023-09-30T00:57:28;2.85;;;1.00;;
55069;SDS011;40967;52.070;8.596;2023-09-30T00:59:55;1.90;;;0.90;;
55069;SDS011;40967;52.070;8.596;2023-09-30T01:02:22;2.42;;;0.90;;
55069;SDS011;40967;52.070;8.596;2023-09-30T01:04:48;2.30;;;0.80;;
55069;SDS011;40967;52.070;8.596;2023-09-30T01:07:14;2.70;;;1.00;;
55069;SDS011;40967;52.070;8.596;2023-09-30T01:09:39;2.83;;;1.10;;
55069;SDS011;40967;52.070;8.596;2023-09-30T01:12:05;3.70;;;1.10;;
55069;SDS011;40967;52.070;8.596;2023-09-30T01:14:31;3.67;;;1.10;;
55069;SDS011;40967;52.070;8.596;2023-09-30T01:16:59;2.78;;;1.00;;
55069;SDS011;40967;52.070;8.596;2023-09-30T01:19:25;3.38;;;1.08;;
55069;SDS011;40967;52.070;8.596;2023-09-30T01:21:52;2.90;;;1.00;;
55069;SDS011;40967;52.070;8.596;2023-09-30T01:24:31;3.40;;;1.20;;
55069;SDS011;40967;52.070;8.596;2023-09-30T01:27:03;2.70;;;1.10;;
55069;SDS011;40967;52.070;8.596;2023-09-30T01:29:28;3.08;;;1.00;;
55069;SDS011;40967;52.070;8.596;2023-09-30T01:31:55;2.53;;;0.90;;
55069;SDS011;40967;52.070;8.596;2023-09-30T01:34:20;2.83;;;0.90;;
55069;SDS011;40967;52.070;8.596;2023-09-30T01:36:46;2.20;;;0.80;;
55069;SDS011;40967;52.070;8.596;2023-09-30T01:39:12;2.20;;;0.80;;
55069;SDS011;40967;52.070;8.596;2023-09-30T01:41:39;2.67;;;0.90;;
55069;SDS011;40967;52.070;8.596;2023-09-30T01:44:05;2.60;;;0.80;;
55069;SDS011;40967;52.070;8.596;2023-09-30T01:46:30;3.05;;;1.10;;
55069;SDS011;40967;52.070;8.596;2023-09-30T01:48:56;2.20;;;0.70;;
55069;SDS011;40967;52.070;8.596;2023-09-30T01:51:21;2.37;;;0.87;;
55069;SDS011;40967;52.070;8.596;2023-09-30T01:53:47;2.83;;;0.82;;
55069;SDS011;40967;52.070;8.596;2023-09-30T01:56:13;2.30;;;0.80;;
55069;SDS011;40967;52.070;8.596;2023-09-30T01:58:38;2.05;;;0.82;;
55069;SDS011;40967;52.070;8.596;2023-09-30T02:01:04;1.80;;;0.70;;
55069;SDS011;40967;52.070;8.596;2023-09-30T02:03:29;2.47;;;0.80;;
55069;SDS011;40967;52.070;8.596;2023-09-30T02:05:55;1.83;;;0.80;;
55069;SDS011;40967;52.070;8.596;2023-09-30T02:08:21;2.55;;;0.98;;
55069;SDS011;40967;52.070;8.596;2023-09-30T02:10:47;2.17;;;0.80;;
55069;SDS011;40967;52.070;8.596;2023-09-30T02:13:12;3.00;;;0.87;;
55069;SDS011;40967;52.070;8.596;2023-09-30T02:15:41;2.20;;;0.70;;
55069;SDS011;40967;52.070;8.596;2023-09-30T02:18:06;2.58;;;0.85;;
55069;SDS011;40967;52.070;8.596;2023-09-30T02:20:32;1.88;;;0.77;;
55069;SDS011;40967;52.070;8.596;2023-09-30T02:22:57;2.80;;;0.60;;
55069;SDS011;40967;52.070;8.596;2023-09-30T02:25:24;2.53;;;1.00;;
55069;SDS011;40967;52.070;8.596;2023-09-30T02:27:50;3.03;;;0.90;;
55069;SDS011;40967;52.070;8.596;2023-09-30T02:30:15;2.28;;;0.82;;
55069;SDS011;40967;52.070;8.596;2023-09-30T02:32:41;2.73;;;0.70;;
55069;SDS011;40967;52.070;8.596;2023-09-30T02:35:07;2.15;;;0.80;;
55069;SDS011;40967;52.070;8.596;2023-09-30T02:37:37;1.88;;;0.70;;
55069;SDS011;40967;52.070;8.596;2023-09-30T02:40:03;1.97;;;0.70;;
55069;SDS011;40967;52.070;8.596;2023-09-30T02:42:40;1.85;;;0.60;;
55069;SDS011;40967;52.070;8.596;2023-09-30T02:45:06;2.15;;;0.95;;
55069;SDS011;40967;52.070;8.596;2023-09-30T02:47:33;2.28;;;0.80;;
55069;SDS011;40967;52.070;8.596;2023-09-30T02:49:59;1.83;;;0.70;;
55069;SDS011;40967;52.070;8.596;2023-09-30T02:52:25;1.70;;;0.65;;
55069;SDS011;40967;52.070;8.596;2023-09-30T02:54:53;2.13;;;0.70;;
55069;SDS011;40967;52.070;8.596;2023-09-30T02:57:18;2.60;;;0.80;;
55069;SDS011;40967;52.070;8.596;2023-09-30T02:59:44;2.15;;;0.80;;
55069;SDS011;40967;52.070;8.596;2023-09-30T03:02:10;1.75;;;0.52;;
55069;SDS011;40967;52.070;8.596;2023-09-30T03:04:36;2.17;;;0.70;;
55069;SDS011;40967;52.070;8.596;2023-09-30T03:07:02;2.40;;;0.80;;
55069;SDS011;40967;52.070;8.596;2023-09-30T03:09:27;1.67;;;0.68;;
55069;SDS011;40967;52.070;8.596;2023-09-30T03:11:53;3.00;;;0.80;;
55069;SDS011;40967;52.070;8.596;2023-09-30T03:14:21;2.15;;;0.82;;
55069;SDS011;40967;52.070;8.596;2023-09-30T03:16:48;1.63;;;0.80;;
55069;SDS011;40967;52.070;8.596;2023-09-30T03:19:13;2.03;;;0.65;;
55069;SDS011;40967;52.070;8.596;2023-09-30T03:21:41;1.55;;;0.60;;
55069;SDS011;40967;52.070;8.596;2023-09-30T03:24:07;2.42;;;0.85;;
55069;SDS011;40967;52.070;8.596;2023-09-30T03:26:33;1.90;;;0.70;;
55069;SDS011;40967;52.070;8.596;2023-09-30T03:28:59;2.27;;;0.77;;
55069;SDS011;40967;52.070;8.596;2023-09-30T03:31:25;3.10;;;0.70;;
55069;SDS011;40967;52.070;8.596;2023-09-30T03:33:50;1.97;;;0.67;;
55069;SDS011;40967;52.070;8.596;2023-09-30T03:36:19;2.20;;;0.70;;
55069;SDS011;40967;52.070;8.596;2023-09-30T03:38:49;1.90;;;0.70;;
55069;SDS011;40967;52.070;8.596;2023-09-30T03:41:15;1.98;;;0.80;;
55069;SDS011;40967;52.070;8.596;2023-09-30T03:43:40;1.80;;;0.67;;
55069;SDS011;40967;52.070;8.596;2023-09-30T03:46:09;1.43;;;0.63;;
55069;SDS011;40967;52.070;8.596;2023-09-30T03:48:34;1.70;;;0.60;;
55069;SDS011;40967;52.070;8.596;2023-09-30T03:51:22;4.20;;;1.00;;
55069;SDS011;40967;52.070;8.596;2023-09-30T03:53:50;2.17;;;0.65;;
55069;SDS011;40967;52.070;8.596;2023-09-30T03:56:15;1.80;;;0.68;;
55069;SDS011;40967;52.070;8.596;2023-09-30T03:58:44;2.15;;;0.70;;
55069;SDS011;40967;52.070;8.596;2023-09-30T04:01:11;2.43;;;0.97;;
55069;SDS011;40967;52.070;8.596;2023-09-30T04:03:39;1.60;;;0.70;;
55069;SDS011;40967;52.070;8.596;2023-09-30T04:06:05;2.15;;;0.88;;
55069;SDS011;40967;52.070;8.596;2023-09-30T04:08:33;2.10;;;0.83;;
55069;SDS011;40967;52.070;8.596;2023-09-30T04:11:02;3.97;;;0.93;;
55069;SDS011;40967;52.070;8.596;2023-09-30T04:13:28;4.05;;;1.15;;
55069;SDS011;40967;52.070;8.596;2023-09-30T04:15:54;3.20;;;1.10;;
55069;SDS011;40967;52.070;8.596;2023-09-30T04:18:20;3.92;;;1.40;;
55069;SDS011;40967;52.070;8.596;2023-09-30T04:20:52;3.53;;;1.25;;
55069;SDS011;40967;52.070;8.596;2023-09-30T04:23:17;2.30;;;0.90;;
55069;SDS011;40967;52.070;8.596;2023-09-30T04:25:45;3.55;;;1.20;;
55069;SDS011;40967;52.070;8.596;2023-09-30T04:28:11;2.67;;;1.05;;
55069;SDS011;40967;52.070;8.596;2023-09-30T04:30:38;4.20;;;1.58;;
55069;SDS011;40967;52.070;8.596;2023-09-30T04:33:04;2.43;;;1.17;;
55069;SDS011;40967;52.070;8.596;2023-09-30T04:35:30;3.25;;;1.25;;
55069;SDS011;40967;52.070;8.596;2023-09-30T04:37:56;3.40;;;1.13;;
55069;SDS011;40967;52.070;8.596;2023-09-30T04:40:26;3.15;;;1.25;;
55069;SDS011;40967;52.070;8.596;2023-09-30T04:42:51;3.40;;;1.20;;
55069;SDS011;40967;52.070;8.596;2023-09-30T04:45:19;2.60;;;1.10;;
55069;SDS011;40967;52.070;8.596;2023-09-30T04:47:49;2.47;;;1.00;;
55069;SDS011;40967;52.070;8.596;2023-09-30T04:50:15;3.10;;;1.17;;
55069;SDS011;40967;52.070;8.596;2023-09-30T04:52:41;2.88;;;1.10;;
55069;SDS011;40967;52.070;8.596;2023-09-30T04:55:07;3.10;;;1.00;;
55069;SDS011;40967;52.070;8.596;2023-09-30T04:57:33;4.10;;;1.50;;
55069;SDS011;40967;52.070;8.596;2023-09-30T04:59:59;3.07;;;1.20;;
55069;SDS011;40967;52.070;8.596;2023-09-30T05:02:27;3.63;;;1.20;;
55069;SDS011;40967;52.070;8.596;2023-09-30T05:04:53;3.95;;;1.30;;
55069;SDS011;40967;52.070;8.596;2023-09-30T05:07:19;2.87;;;1.13;;
55069;SDS011;40967;52.070;8.596;2023-09-30T05:09:46;3.33;;;1.10;;
55069;SDS011;40967;52.070;8.596;2023-09-30T05:12:12;3.30;;;1.10;;
55069;SDS011;40967;52.070;8.596;2023-09-30T05:14:37;2.47;;;0.90;;
55069;SDS011;40967;52.070;8.596;2023-09-30T05:17:04;3.58;;;1.45;;
55069;SDS011;40967;52.070;8.596;2023-09-30T05:19:30;3.67;;;1.33;;
55069;SDS011;40967;52.070;8.596;2023-09-30T05:21:57;3.13;;;1.00;;
55069;SDS011;40967;52.070;8.596;2023-09-30T05:24:24;2.70;;;0.88;;
55069;SDS011;40967;52.070;8.596;2023-09-30T05:26:50;2.22;;;0.80;;
55069;SDS011;40967;52.070;8.596;2023-09-30T05:29:15;2.10;;;0.83;;
55069;SDS011;40967;52.070;8.596;2023-09-30T05:31:41;2.20;;;0.80;;
55069;SDS011;40967;52.070;8.596;2023-09-30T05:34:07;2.07;;;0.70;;
55069;SDS011;40967;52.070;8.596;2023-09-30T05:36:32;2.30;;;0.90;;
55069;SDS011;40967;52.070;8.596;2023-09-30T05:38:58;1.80;;;0.63;;
55069;SDS011;40967;52.070;8.596;2023-09-30T05:41:23;1.70;;;0.70;;
55069;SDS011;40967;52.070;8.596;2023-09-30T05:43:49;1.88;;;0.80;;
55069;SDS011;40967;52.070;8.596;2023-09-30T05:46:18;2.00;;;0.70;;
55069;SDS011;40967;52.070;8.596;2023-09-30T05:48:43;2.40;;;0.70;;
55069;SDS011;40967;52.070;8.596;2023-09-30T05:51:11;1.97;;;0.70;;
55069;SDS011;40967;52.070;8.596;2023-09-30T05:53:40;1.77;;;0.70;;
55069;SDS011;40967;52.070;8.596;2023-09-30T05:56:06;2.03;;;0.63;;
55069;SDS011;40967;52.070;8.596;2023-09-30T05:58:32;1.85;;;0.73;;
55069;SDS011;40967;52.070;8.596;2023-09-30T06:00:59;2.67;;;0.80;;
55069;SDS011;40967;52.070;8.596;2023-09-30T06:03:26;2.10;;;0.80;;
55069;SDS011;40967;52.070;8.596;2023-09-30T06:05:54;1.67;;;0.80;;
55069;SDS011;40967;52.070;8.596;2023-09-30T06:08:21;1.38;;;0.65;;
55069;SDS011;40967;52.070;8.596;2023-09-30T06:10:46;1.40;;;0.60;;
55069;SDS011;40967;52.070;8.596;2023-09-30T06:13:12;1.77;;;0.70;;
55069;SDS011;40967;52.070;8.596;2023-09-30T06:15:41;3.07;;;0.80;;
55069;SDS011;40967;52.070;8.596;2023-09-30T06:18:11;2.00;;;0.90;;
55069;SDS011;40967;52.070;8.596;2023-09-30T06:20:38;1.70;;;0.70;;
55069;SDS011;40967;52.070;8.596;2023-09-30T06:23:06;1.70;;;0.70;;
55069;SDS011;40967;52.070;8.596;2023-09-30T06:25:32;1.73;;;0.70;;
55069;SDS011;40967;52.070;8.596;2023-09-30T06:27:58;1.33;;;0.60;;
55069;SDS011;40967;52.070;8.596;2023-09-30T06:30:24;2.30;;;0.88;;
55069;SDS011;40967;52.070;8.596;2023-09-30T06:32:58;1.67;;;0.77;;
55069;SDS011;40967;52.070;8.596;2023-09-30T06:35:25;1.90;;;0.73;;
55069;SDS011;40967;52.070;8.596;2023-09-30T06:38:10;2.08;;;0.63;;
55069;SDS011;40967;52.070;8.596;2023-09-30T06:40:36;1.93;;;0.70;;
55069;SDS011;40967;52.070;8.596;2023-09-30T06:43:04;2.42;;;0.80;;
55069;SDS011;40967;52.070;8.596;2023-09-30T06:45:30;2.03;;;0.80;;
55069;SDS011;40967;52.070;8.596;2023-09-30T06:47:57;1.47;;;0.70;;
55069;SDS011;40967;52.070;8.596;2023-09-30T06:50:23;1.45;;;0.70;;
55069;SDS011;40967;52.070;8.596;2023-09-30T06:52:49;1.67;;;0.67;;
55069;SDS011;40967;52.070;8.596;2023-09-30T06:55:14;2.17;;;0.70;;
55069;SDS011;40967;52.070;8.596;2023-09-30T06:57:41;2.08;;;0.85;;
55069;SDS011;40967;52.070;8.596;2023-09-30T07:02:37;1.95;;;0.80;;
55069;SDS011;40967;52.070;8.596;2023-09-30T07:05:12;3.55;;;1.20;;
55069;SDS011;40967;52.070;8.596;2023-09-30T07:07:38;2.53;;;1.00;;
55069;SDS011;40967;52.070;8.596;2023-09-30T07:10:05;2.17;;;0.95;;
55069;SDS011;40967;52.070;8.596;2023-09-30T07:12:32;1.92;;;0.90;;
55069;SDS011;40967;52.070;8.596;2023-09-30T07:15:00;2.83;;;1.10;;
55069;SDS011;40967;52.070;8.596;2023-09-30T07:17:32;3.13;;;1.10;;
55069;SDS011;40967;52.070;8.596;2023-09-30T07:20:05;3.13;;;1.27;;
55069;SDS011;40967;52.070;8.596;2023-09-30T07:22:32;3.00;;;1.10;;
55069;SDS011;40967;52.070;8.596;2023-09-30T07:24:58;2.00;;;0.93;;
55069;SDS011;40967;52.070;8.596;2023-09-30T07:27:26;3.25;;;1.10;;
55069;SDS011;40967;52.070;8.596;2023-09-30T07:29:53;2.63;;;0.90;;
55069;SDS011;40967;52.070;8.596;2023-09-30T07:32:18;2.20;;;0.90;;
55069;SDS011;40967;52.070;8.596;2023-09-30T07:34:44;5.10;;;2.10;;
55069;SDS011;40967;52.070;8.596;2023-09-30T07:37:09;3.00;;;1.40;;
55069;SDS011;40967;52.070;8.596;2023-09-30T07:39:35;4.20;;;1.40;;
55069;SDS011;40967;52.070;8.596;2023-09-30T07:42:03;3.38;;;1.15;;
55069;SDS011;40967;52.070;8.596;2023-09-30T07:44:30;2.92;;;1.20;;
55069;SDS011;40967;52.070;8.596;2023-09-30T07:46:57;3.00;;;1.35;;
55069;SDS011;40967;52.070;8.596;2023-09-30T07:49:26;3.35;;;1.40;;
55069;SDS011;40967;52.070;8.596;2023-09-30T07:51:55;4.15;;;1.45;;
55069;SDS011;40967;52.070;8.596;2023-09-30T07:54:20;5.40;;;2.00;;
55069;SDS011;40967;52.070;8.596;2023-09-30T07:56:47;6.57;;;2.13;;
55069;SDS011;40967;52.070;8.596;2023-09-30T07:59:12;8.17;;;3.27;;
55069;SDS011;40967;52.070;8.596;2023-09-30T08:01:39;7.28;;;2.78;;
55069;SDS011;40967;52.070;8.596;2023-09-30T08:04:04;5.43;;;2.30;;
55069;SDS011;40967;52.070;8.596;2023-09-30T08:06:30;5.57;;;2.30;;
55069;SDS011;40967;52.070;8.596;2023-09-30T08:08:56;7.60;;;3.00;;
55069;SDS011;40967;52.070;8.596;2023-09-30T08:11:21;5.75;;;2.00;;
55069;SDS011;40967;52.070;8.596;2023-09-30T08:13:47;6.32;;;2.65;;
55069;SDS011;40967;52.070;8.596;2023-09-30T08:16:13;8.43;;;2.60;;
55069;SDS011;40967;52.070;8.596;2023-09-30T08:18:39;5.13;;;2.13;;
55069;SDS011;40967;52.070;8.596;2023-09-30T08:21:08;7.20;;;3.00;;
55069;SDS011;40967;52.070;8.596;2023-09-30T08:23:38;6.97;;;2.78;;
55069;SDS011;40967;52.070;8.596;2023-09-30T08:26:04;5.40;;;2.65;;
55069;SDS011;40967;52.070;8.596;2023-09-30T08:28:31;9.75;;;3.72;;
55069;SDS011;40967;52.070;8.596;2023-09-30T08:31:03;5.90;;;2.38;;
55069;SDS011;40967;52.070;8.596;2023-09-30T08:33:30;5.53;;;2.70;;
55069;SDS011;40967;52.070;8.596;2023-09-30T08:36:06;5.95;;;2.40;;
55069;SDS011;40967;52.070;8.596;2023-09-30T08:38:34;11.07;;;4.47;;
55069;SDS011;40967;52.070;8.596;2023-09-30T08:41:00;8.23;;;3.40;;
55069;SDS011;40967;52.070;8.596;2023-09-30T08:43:27;7.20;;;2.95;;
55069;SDS011;40967;52.070;8.596;2023-09-30T08:46:00;8.57;;;3.30;;
55069;SDS011;40967;52.070;8.596;2023-09-30T08:48:28;7.88;;;2.97;;
55069;SDS011;40967;52.070;8.596;2023-09-30T08:50:57;5.70;;;2.33;;
55069;SDS011;40967;52.070;8.596;2023-09-30T08:53:28;5.50;;;2.20;;
55069;SDS011;40967;52.070;8.596;2023-09-30T08:55:56;4.57;;;1.95;;
55069;SDS011;40967;52.070;8.596;2023-09-30T08:58:26;6.87;;;3.00;;
55069;SDS011;40967;52.070;8.596;2023-09-30T09:00:53;6.13;;;2.42;;
55069;SDS011;40967;52.070;8.596;2023-09-30T09:03:19;6.23;;;2.60;;
55069;SDS011;40967;52.070;8.596;2023-09-30T09:05:45;5.28;;;2.15;;
55069;SDS011;40967;52.070;8.596;2023-09-30T09:08:15;8.63;;;3.95;;
55069;SDS011;40967;52.070;8.596;2023-09-30T09:10:55;6.50;;;2.95;;
55069;SDS011;40967;52.070;8.596;2023-09-30T09:13:25;4.85;;;2.33;;
55069;SDS011;40967;52.070;8.596;2023-09-30T09:16:05;5.22;;;2.35;;
55069;SDS011;40967;52.070;8.596;2023-09-30T09:18:34;4.93;;;2.47;;
55069;SDS011;40967;52.070;8.596;2023-09-30T09:21:07;4.50;;;2.05;;
55069;SDS011;40967;52.070;8.596;2023-09-30T09:23:42;7.10;;;2.53;;
55069;SDS011;40967;52.070;8.596;2023-09-30T09:26:12;5.10;;;2.07;;
55069;SDS011;40967;52.070;8.596;2023-09-30T09:28:58;5.55;;;2.40;;
55069;SDS011;40967;52.070;8.596;2023-09-30T09:31:31;5.67;;;2.40;;
55069;SDS011;40967;52.070;8.596;2023-09-30T09:33:59;6.25;;;3.00;;
55069;SDS011;40967;52.070;8.596;2023-09-30T09:36:38;5.15;;;2.40;;
55069;SDS011;40967;52.070;8.596;2023-09-30T09:39:06;5.65;;;2.20;;
55069;SDS011;40967;52.070;8.596;2023-09-30T09:41:36;4.97;;;2.20;;
55069;SDS011;40967;52.070;8.596;2023-09-30T09:44:15;7.57;;;2.80;;
55069;SDS011;40967;52.070;8.596;2023-09-30T09:46:45;6.63;;;2.78;;
55069;SDS011;40967;52.070;8.596;2023-09-30T09:49:18;5.20;;;2.40;;
55069;SDS011;40967;52.070;8.596;2023-09-30T09:51:45;4.35;;;1.83;;
55069;SDS011;40967;52.070;8.596;2023-09-30T09:54:11;4.03;;;1.67;;
55069;SDS011;40967;52.070;8.596;2023-09-30T09:56:38;3.88;;;1.48;;
55069;SDS011;40967;52.070;8.596;2023-09-30T09:59:06;3.15;;;1.50;;
55069;SDS011;40967;52.070;8.596;2023-09-30T10:01:35;6.35;;;2.53;;
55069;SDS011;40967;52.070;8.596;2023-09-30T10:04:01;4.75;;;1.80;;
55069;SDS011;40967;52.070;8.596;2023-09-30T10:06:27;4.05;;;1.50;;
55069;SDS011;40967;52.070;8.596;2023-09-30T10:08:54;4.50;;;1.90;;
55069;SDS011;40967;52.070;8.596;2023-09-30T10:11:25;4.38;;;1.65;;
55069;SDS011;40967;52.070;8.596;2023-09-30T10:13:54;4.25;;;1.90;;
55069;SDS011;40967;52.070;8.596;2023-09-30T10:19:15;4.07;;;1.60;;
55069;SDS011;40967;52.070;8.596;2023-09-30T10:24:49;5.13;;;1.85;;
55069;SDS011;40967;52.070;8.596;2023-09-30T10:30:10;4.53;;;1.70;;
55069;SDS011;40967;52.070;8.596;2023-09-30T10:33:11;5.05;;;2.00;;
55069;SDS011;40967;52.070;8.596;2023-09-30T10:40:50;5.82;;;2.03;;
55069;SDS011;40967;52.070;8.596;2023-09-30T10:43:39;3.50;;;1.30;;
55069;SDS011;40967;52.070;8.596;2023-09-30T10:48:54;3.58;;;1.35;;
55069;SDS011;40967;52.070;8.596;2023-09-30T10:51:20;4.43;;;1.67;;
55069;SDS011;40967;52.070;8.596;2023-09-30T10:53:53;3.75;;;1.40;;
55069;SDS011;40967;52.070;8.596;2023-09-30T10:56:26;3.50;;;1.25;;
55069;SDS011;40967;52.070;8.596;2023-09-30T10:58:58;3.92;;;1.42;;
55069;SDS011;40967;52.070;8.596;2023-09-30T11:01:24;3.53;;;1.43;;
55069;SDS011;40967;52.070;8.596;2023-09-30T11:03:58;3.35;;;1.30;;
55069;SDS011;40967;52.070;8.596;2023-09-30T11:06:28;3.08;;;1.20;;
55069;SDS011;40967;52.070;8.596;2023-09-30T11:08:57;3.50;;;1.10;;
55069;SDS011;40967;52.070;8.596;2023-09-30T11:11:39;4.15;;;1.42;;
55069;SDS011;40967;52.070;8.596;2023-09-30T11:16:51;4.15;;;1.40;;
55069;SDS011;40967;52.070;8.596;2023-09-30T11:19:17;3.88;;;1.50;;
55069;SDS011;40967;52.070;8.596;2023-09-30T11:21:47;4.43;;;1.30;;
55069;SDS011;40967;52.070;8.596;2023-09-30T11:24:16;4.10;;;1.60;;
55069;SDS011;40967;52.070;8.596;2023-09-30T11:26:43;4.30;;;1.52;;
55069;SDS011;40967;52.070;8.596;2023-09-30T11:29:13;4.15;;;1.50;;
55069;SDS011;40967;52.070;8.596;2023-09-30T11:31:41;4.65;;;1.58;;
55069;SDS011;40967;52.070;8.596;2023-09-30T11:34:08;4.55;;;1.80;;
55069;SDS011;40967;52.070;8.596;2023-09-30T11:36:38;6.13;;;2.20;;
55069;SDS011;40967;52.070;8.596;2023-09-30T11:39:10;5.32;;;1.85;;
55069;SDS011;40967;52.070;8.596;2023-09-30T11:41:36;4.00;;;1.35;;
55069;SDS011;40967;52.070;8.596;2023-09-30T11:44:10;4.53;;;1.55;;
55069;SDS011;40967;52.070;8.596;2023-09-30T11:49:39;5.63;;;1.67;;
55069;SDS011;40967;52.070;8.596;2023-09-30T11:52:10;4.30;;;1.48;;
55069;SDS011;40967;52.070;8.596;2023-09-30T11:54:39;2.70;;;1.15;;
55069;SDS011;40967;52.070;8.596;2023-09-30T11:57:08;6.90;;;2.08;;
55069;SDS011;40967;52.070;8.596;2023-09-30T11:59:35;6.05;;;2.10;;
55069;SDS011;40967;52.070;8.596;2023-09-30T12:02:06;3.83;;;1.47;;
55069;SDS011;40967;52.070;8.596;2023-09-30T12:04:32;5.38;;;1.73;;
55069;SDS011;40967;52.070;8.596;2023-09-30T12:06:57;6.23;;;1.87;;
55069;SDS011;40967;52.070;8.596;2023-09-30T12:09:26;4.63;;;1.60;;
55069;SDS011;40967;52.070;8.596;2023-09-30T12:11:53;6.20;;;1.70;;
55069;SDS011;40967;52.070;8.596;2023-09-30T12:14:22;4.25;;;1.30;;
55069;SDS011;40967;52.070;8.596;2023-09-30T12:16:49;2.67;;;1.00;;
55069;SDS011;40967;52.070;8.596;2023-09-30T12:19:15;4.13;;;1.50;;
55069;SDS011;40967;52.070;8.596;2023-09-30T12:21:43;5.00;;;1.60;;
55069;SDS011;40967;52.070;8.596;2023-09-30T12:24:14;4.22;;;1.40;;
55069;SDS011;40967;52.070;8.596;2023-09-30T12:26:45;3.95;;;1.15;;
55069;SDS011;40967;52.070;8.596;2023-09-30T12:29:19;2.90;;;1.07;;
55069;SDS011;40967;52.070;8.596;2023-09-30T12:31:47;2.72;;;0.90;;
55069;SDS011;40967;52.070;8.596;2023-09-30T12:34:13;5.07;;;1.90;;
55069;SDS011;40967;52.070;8.596;2023-09-30T12:36:40;3.70;;;1.47;;
55069;SDS011;40967;52.070;8.596;2023-09-30T12:39:10;5.05;;;1.77;;
55069;SDS011;40967;52.070;8.596;2023-09-30T12:41:40;3.67;;;1.27;;
55069;SDS011;40967;52.070;8.596;2023-09-30T12:44:07;4.07;;;1.30;;
55069;SDS011;40967;52.070;8.596;2023-09-30T12:46:33;3.35;;;1.35;;
55069;SDS011;40967;52.070;8.596;2023-09-30T12:49:00;2.30;;;0.95;;
55069;SDS011;40967;52.070;8.596;2023-09-30T12:51:28;6.22;;;1.73;;
55069;SDS011;40967;52.070;8.596;2023-09-30T12:53:54;3.20;;;1.10;;
55069;SDS011;40967;52.070;8.596;2023-09-30T12:56:20;2.67;;;0.90;;
55069;SDS011;40967;52.070;8.596;2023-09-30T12:58:46;2.53;;;1.00;;
55069;SDS011;40967;52.070;8.596;2023-09-30T13:01:11;2.13;;;0.80;;
55069;SDS011;40967;52.070;8.596;2023-09-30T13:03:37;2.53;;;0.90;;
55069;SDS011;40967;52.070;8.596;2023-09-30T13:06:02;3.40;;;1.10;;
55069;SDS011;40967;52.070;8.596;2023-09-30T13:08:28;4.15;;;1.45;;
55069;SDS011;40967;52.070;8.596;2023-09-30T13:10:58;4.13;;;1.50;;
55069;SDS011;40967;52.070;8.596;2023-09-30T13:13:30;3.53;;;1.15;;
55069;SDS011;40967;52.070;8.596;2023-09-30T13:16:00;3.00;;;1.10;;
55069;SDS011;40967;52.070;8.596;2023-09-30T13:18:26;3.80;;;1.20;;
55069;SDS011;40967;52.070;8.596;2023-09-30T13:20:52;2.30;;;1.00;;
55069;SDS011;40967;52.070;8.596;2023-09-30T13:23:18;1.77;;;0.70;;
55069;SDS011;40967;52.070;8.596;2023-09-30T13:25:44;6.30;;;1.95;;
55069;SDS011;40967;52.070;8.596;2023-09-30T13:28:11;3.13;;;1.23;;
55069;SDS011;40967;52.070;8.596;2023-09-30T13:30:41;2.40;;;0.82;;
55069;SDS011;40967;52.070;8.596;2023-09-30T13:33:06;3.30;;;1.00;;
55069;SDS011;40967;52.070;8.596;2023-09-30T13:35:32;3.53;;;1.20;;
55069;SDS011;40967;52.070;8.596;2023-09-30T13:37:57;4.03;;;1.50;;
55069;SDS011;40967;52.070;8.596;2023-09-30T13:40:23;6.23;;;2.00;;
55069;SDS011;40967;52.070;8.596;2023-09-30T13:42:48;4.47;;;1.60;;
55069;SDS011;40967;52.070;8.596;2023-09-30T13:45:15;4.07;;;1.30;;
55069;SDS011;40967;52.070;8.596;2023-09-30T13:47:44;3.35;;;1.30;;
55069;SDS011;40967;52.070;8.596;2023-09-30T13:50:10;2.57;;;0.90;;
55069;SDS011;40967;52.070;8.596;2023-09-30T13:52:36;3.42;;;1.15;;
55069;SDS011;40967;52.070;8.596;2023-09-30T13:55:02;2.87;;;1.20;;
55069;SDS011;40967;52.070;8.596;2023-09-30T13:57:29;3.07;;;0.90;;
55069;SDS011;40967;52.070;8.596;2023-09-30T13:59:56;3.80;;;1.40;;
55069;SDS011;40967;52.070;8.596;2023-09-30T14:02:23;3.25;;;1.15;;
55069;SDS011;40967;52.070;8.596;2023-09-30T14:04:49;4.30;;;1.23;;
55069;SDS011;40967;52.070;8.596;2023-09-30T14:07:14;2.28;;;0.90;;
55069;SDS011;40967;52.070;8.596;2023-09-30T14:09:43;2.90;;;1.10;;
55069;SDS011;40967;52.070;8.596;2023-09-30T14:12:09;2.97;;;1.20;;
55069;SDS011;40967;52.070;8.596;2023-09-30T14:14:34;2.60;;;1.00;;
55069;SDS011;40967;52.070;8.596;2023-09-30T14:17:00;2.78;;;0.90;;
55069;SDS011;40967;52.070;8.596;2023-09-30T14:19:32;2.97;;;1.00;;
55069;SDS011;40967;52.070;8.596;2023-09-30T14:21:57;3.13;;;1.00;;
55069;SDS011;40967;52.070;8.596;2023-09-30T14:24:23;3.60;;;1.00;;
55069;SDS011;40967;52.070;8.596;2023-09-30T14:26:48;4.20;;;1.20;;
55069;SDS011;40967;52.070;8.596;2023-09-30T14:29:13;4.63;;;1.20;;
55069;SDS011;40967;52.070;8.596;2023-09-30T14:31:39;4.50;;;1.40;;
55069;SDS011;40967;52.070;8.596;2023-09-30T14:34:04;3.08;;;1.20;;
55069;SDS011;40967;52.070;8.596;2023-09-30T14:36:33;2.53;;;0.90;;
55069;SDS011;40967;52.070;8.596;2023-09-30T14:38:59;1.88;;;0.70;;
55069;SDS011;40967;52.070;8.596;2023-09-30T14:41:25;2.63;;;0.80;;
55069;SDS011;40967;52.070;8.596;2023-09-30T14:43:50;1.77;;;0.63;;
55069;SDS011;40967;52.070;8.596;2023-09-30T14:46:17;1.90;;;0.67;;
55069;SDS011;40967;52.070;8.596;2023-09-30T14:48:43;1.40;;;0.57;;
55069;SDS011;40967;52.070;8.596;2023-09-30T14:51:09;2.72;;;0.80;;
55069;SDS011;40967;52.070;8.596;2023-09-30T14:53:34;2.47;;;0.80;;
55069;SDS011;40967;52.070;8.596;2023-09-30T14:55:59;2.50;;;1.17;;
55069;SDS011;40967;52.070;8.596;2023-09-30T14:58:25;1.98;;;0.60;;
55069;SDS011;40967;52.070;8.596;2023-09-30T15:00:51;3.10;;;1.10;;
55069;SDS011;40967;52.070;8.596;2023-09-30T15:03:21;2.85;;;0.70;;
55069;SDS011;40967;52.070;8.596;2023-09-30T15:05:56;1.92;;;0.82;;
55069;SDS011;40967;52.070;8.596;2023-09-30T15:08:23;1.92;;;0.80;;
55069;SDS011;40967;52.070;8.596;2023-09-30T15:10:48;2.60;;;1.00;;
55069;SDS011;40967;52.070;8.596;2023-09-30T15:13:13;2.27;;;0.80;;
55069;SDS011;40967;52.070;8.596;2023-09-30T15:15:39;3.72;;;1.02;;